Sunol, CA

12:51 PM PDT on September 03, 2015 (GMT -0700)
Sunol near railroad station | | Change Station
CLOSE
Current Station
Personal Weather Station
Location: Sunol, CA
Elevation: 256 ft
Nearby Weather Stations

Elev 256 ft 37.59 °N, 121.89 °W | Updated 9 minutes ago

Clear
Clear
75.9 °F
Feels Like 78 °F
N
6.3
Wind Variable Wind from NNW

Today
High -- | Low -- °F
--% Chance of Precip.
Yesterday
High -- | Low -- °F
Precip. -- in
6:39 AM 7:33 PM
Waning Gibbous, 67% visible
Pressure 29.92 in
Visibility 10.0 miles
Clouds Clear
Heat Index 78 °F
Dew Point 50 °F
Humidity 41%
Rainfall 0.00 in
Snow Depth Not available.
UV 9 out of 12
Pollen 8.00 out of 12
Air Quality Not available.
Flu Activity Not available.
METAR KLVK 031853Z 25010KT 10SM CLR 24/07 A2992 RMK AO2 SLP130 T02390067
Pressure 29.92 in
Visibility 10.0 miles
Clouds Clear
Heat Index 78 °F
Dew Point 50 °F
Humidity 41%
Rainfall 0.00 in
Snow Depth Not available.
UV 9 out of 12
Pollen 8.00 out of 12
Air Quality Not available.
Flu Activity Not available.
METAR KLVK 031853Z 25010KT 10SM CLR 24/07 A2992 RMK AO2 SLP130 T02390067

10-Day Weather Forecast

×

Almanac

Astronomy

Sep. 03, 2015 Rise Set
Actual Time
Civil Twilight
Nautical Twilight
Astronomical Twilight
Moon
Length of Visible Light
Length of Day
Tomorrow will be .
, % of the Moon is Illuminated

Today's Extremes

State Highs State Lows

Community

WunderPhotos

Upload Photos

1,852,017 photos uploaded!

WunderBlogs® & News

Nearby

Air Quality

  Air Quality AQ Index Pollutant
Not available.

Snow Depth

Station Depth Elevation

Earthquake Activity

City Distance Mag. Time & Date
Minimum magnitude displayed is 2.5.

Coastal Water Temperatures

Place Temperature

Stations

Nearby Weather Stations

Station Location Temp. Windchill Dew Point Humidity Wind Precip. Elev Updated Type